Oshawa Airport

CYOO · 安大略, 加拿大

罗盘
风向 的 风向 的 风向 到 风向 250° Oshawa Airport 5/23
风: 3 kt, 1 beaufort

2 kt

2 kt
改变
0 ft 6.000 12.000 18.000 24.000 30.000
Cloud Cloud
FEW 20.000
Cloud Cloud Cloud Cloud
SCT 22.000
Cloud Cloud Cloud Cloud Cloud Cloud
BKN 24.000
METAR CYOO 201300Z AUTO 25003KT 200V270 9SM FEW200 SCT220 BKN240 24/23 A3027 RMK SLP250 DENSITY ALT 1300FT

METAR Oshawa Airport - CYOO/YOO

Oshawa Airport是,加拿大中的中型机场。 该机场位于纬度43,92255和经度-78,89538。 该机场有2条跑道: 5/23 和 12/30. 本场的ICAO机场代码为CYOO。 该机场的本地机场标识(FAA LID)为CYOO。 该机场的IATA代码为YOO。 机场在Toronto FIR中。

该航空气象观测是针对Oshawa Airport在2024年6月20日 09:00, 当地时间进行的。

机场观察

风向为250°,速度为3 kt。 风向在200°和270°之间变化。

可见度为9 mi。

有几云在20.000 ft的高度, 疏云,零星散落的云朵在22.000 ft的高度 和 碎云在24.000 ft的高度。 破损或更高的上限为24.000 ft。

温度和风寒是24 °C。 露点为23 °C,相对湿度为94%。 海平面上的气压为30,27 inHg (QNH)。

白天

今天,太阳从05:32升起,在21:01降落。 这适用于Oshawa Airport,世界夏令时可能有所不同。 当地时间与世界标准时间之间的时差为-4 小时。 夏令时目前正在进行中。

公司介绍

在这个机场,你可以找到飞行学校。 这个机场上的公司有Canadian Flight Academy 和 Durham Flight Centre。

体会

到Vliegles.nl去找飞行课程,跳伞和其他飞行体验。 浏览页面,了解Oshawa Airport附近所有可用的活动。 你也可以使用搜索功能来寻找你所在地附近的特定飞行课程、跳伞或其他飞行体验。

跑道

Id 标题 侧风 逆风 侧风 %
5/23 035°-215° 2 kt 2 kt 57 %
12/30 111°-291° 2 kt 2 kt 66 %

逆风成分最大的方向会被突出显示,并用于横风计算。 这并不一定意味着这个方向在使用。

乌云

20.000 ft FEW 几云
22.000 ft SCT 疏云,零星散落的云朵
24.000 ft BKN 碎云

温度 & 天气

温度 24 °C
露点 23 °C
相对湿度 94%
Kp-index 1 (0-9)

评论

SLP250海平面压力为30,27 inHg (30,27 inHg)
DENSITY ALT 1300FT

白天

日出
05:32
中午
13:17
日落
21:01 (11:47)

小工具

你想在你的网站上有一个关于Oshawa Airport的当前航空天气(METAR)的小部件吗?

显示HTML代码
报告变更